sensor_id;sensor_type;location;lat;lon;timestamp;P1;durP1;ratioP1;P2;durP2;ratioP2
51981;SDS011;37998;53.416;6.730;2023-04-30T00:02:25;12.32;;;4.35;;
51981;SDS011;37998;53.416;6.730;2023-04-30T00:04:51;9.32;;;3.38;;
51981;SDS011;37998;53.416;6.730;2023-04-30T00:07:17;8.40;;;3.45;;
51981;SDS011;37998;53.416;6.730;2023-04-30T00:09:43;9.07;;;2.90;;
51981;SDS011;37998;53.416;6.730;2023-04-30T00:12:09;9.85;;;3.92;;
51981;SDS011;37998;53.416;6.730;2023-04-30T00:14:34;7.55;;;2.78;;
51981;SDS011;37998;53.416;6.730;2023-04-30T00:17:00;7.88;;;2.70;;
51981;SDS011;37998;53.416;6.730;2023-04-30T00:19:26;8.05;;;2.95;;
51981;SDS011;37998;53.416;6.730;2023-04-30T00:21:52;7.38;;;2.70;;
51981;SDS011;37998;53.416;6.730;2023-04-30T00:24:18;9.35;;;3.70;;
51981;SDS011;37998;53.416;6.730;2023-04-30T00:26:44;10.73;;;3.15;;
51981;SDS011;37998;53.416;6.730;2023-04-30T00:29:10;7.68;;;2.70;;
51981;SDS011;37998;53.416;6.730;2023-04-30T00:31:36;11.57;;;3.13;;
51981;SDS011;37998;53.416;6.730;2023-04-30T00:34:02;6.70;;;2.90;;
51981;SDS011;37998;53.416;6.730;2023-04-30T00:36:28;11.55;;;2.92;;
51981;SDS011;37998;53.416;6.730;2023-04-30T00:38:54;6.93;;;3.08;;
51981;SDS011;37998;53.416;6.730;2023-04-30T00:41:20;6.95;;;2.42;;
51981;SDS011;37998;53.416;6.730;2023-04-30T00:43:47;9.75;;;3.00;;
51981;SDS011;37998;53.416;6.730;2023-04-30T00:46:13;10.38;;;3.15;;
51981;SDS011;37998;53.416;6.730;2023-04-30T00:48:39;9.82;;;2.90;;
51981;SDS011;37998;53.416;6.730;2023-04-30T00:51:05;9.82;;;2.67;;
51981;SDS011;37998;53.416;6.730;2023-04-30T00:53:32;5.90;;;3.05;;
51981;SDS011;37998;53.416;6.730;2023-04-30T00:55:59;10.68;;;3.20;;
51981;SDS011;37998;53.416;6.730;2023-04-30T00:58:25;5.43;;;2.92;;
51981;SDS011;37998;53.416;6.730;2023-04-30T01:00:51;8.25;;;2.42;;
51981;SDS011;37998;53.416;6.730;2023-04-30T01:03:17;8.68;;;3.05;;
51981;SDS011;37998;53.416;6.730;2023-04-30T01:05:43;12.93;;;3.22;;
51981;SDS011;37998;53.416;6.730;2023-04-30T01:08:09;4.65;;;2.47;;
51981;SDS011;37998;53.416;6.730;2023-04-30T01:10:40;6.90;;;2.75;;
51981;SDS011;37998;53.416;6.730;2023-04-30T01:15:59;6.13;;;2.70;;
51981;SDS011;37998;53.416;6.730;2023-04-30T01:18:38;4.47;;;2.97;;
51981;SDS011;37998;53.416;6.730;2023-04-30T01:21:07;3.42;;;2.42;;
51981;SDS011;37998;53.416;6.730;2023-04-30T01:23:41;9.73;;;2.92;;
51981;SDS011;37998;53.416;6.730;2023-04-30T01:29:21;6.47;;;2.40;;
51981;SDS011;37998;53.416;6.730;2023-04-30T01:31:50;10.02;;;3.15;;
51981;SDS011;37998;53.416;6.730;2023-04-30T01:34:16;9.05;;;3.00;;
51981;SDS011;37998;53.416;6.730;2023-04-30T01:36:49;5.35;;;2.70;;
51981;SDS011;37998;53.416;6.730;2023-04-30T01:39:35;10.05;;;3.78;;
51981;SDS011;37998;53.416;6.730;2023-04-30T01:47:56;7.97;;;2.92;;
51981;SDS011;37998;53.416;6.730;2023-04-30T01:53:20;7.20;;;2.80;;
51981;SDS011;37998;53.416;6.730;2023-04-30T01:55:58;5.82;;;2.70;;
51981;SDS011;37998;53.416;6.730;2023-04-30T01:58:28;10.23;;;2.92;;
51981;SDS011;37998;53.416;6.730;2023-04-30T02:00:54;7.80;;;2.60;;
51981;SDS011;37998;53.416;6.730;2023-04-30T02:03:20;10.68;;;2.70;;
51981;SDS011;37998;53.416;6.730;2023-04-30T02:05:47;7.80;;;2.88;;
51981;SDS011;37998;53.416;6.730;2023-04-30T02:08:13;9.13;;;3.50;;
51981;SDS011;37998;53.416;6.730;2023-04-30T02:10:39;13.85;;;5.15;;
51981;SDS011;37998;53.416;6.730;2023-04-30T02:13:05;14.75;;;5.22;;
51981;SDS011;37998;53.416;6.730;2023-04-30T02:15:31;9.55;;;3.70;;
51981;SDS011;37998;53.416;6.730;2023-04-30T02:17:57;11.07;;;3.22;;
51981;SDS011;37998;53.416;6.730;2023-04-30T02:20:23;10.20;;;3.05;;
51981;SDS011;37998;53.416;6.730;2023-04-30T02:22:49;5.95;;;3.30;;
51981;SDS011;37998;53.416;6.730;2023-04-30T02:25:16;14.98;;;3.78;;
51981;SDS011;37998;53.416;6.730;2023-04-30T02:27:41;11.27;;;3.67;;
51981;SDS011;37998;53.416;6.730;2023-04-30T02:30:08;11.35;;;3.10;;
51981;SDS011;37998;53.416;6.730;2023-04-30T02:32:34;8.48;;;2.90;;
51981;SDS011;37998;53.416;6.730;2023-04-30T02:35:00;7.55;;;2.70;;
51981;SDS011;37998;53.416;6.730;2023-04-30T02:37:26;10.80;;;3.33;;
51981;SDS011;37998;53.416;6.730;2023-04-30T02:39:52;7.28;;;3.10;;
51981;SDS011;37998;53.416;6.730;2023-04-30T02:42:18;9.10;;;3.20;;
51981;SDS011;37998;53.416;6.730;2023-04-30T02:44:44;11.90;;;3.10;;
51981;SDS011;37998;53.416;6.730;2023-04-30T02:47:10;10.60;;;3.65;;
51981;SDS011;37998;53.416;6.730;2023-04-30T02:49:36;6.78;;;2.80;;
51981;SDS011;37998;53.416;6.730;2023-04-30T02:52:02;13.05;;;3.13;;
51981;SDS011;37998;53.416;6.730;2023-04-30T02:54:28;11.40;;;3.05;;
51981;SDS011;37998;53.416;6.730;2023-04-30T02:56:54;9.98;;;2.78;;
51981;SDS011;37998;53.416;6.730;2023-04-30T02:59:21;8.18;;;3.50;;
51981;SDS011;37998;53.416;6.730;2023-04-30T03:01:47;9.68;;;3.65;;
51981;SDS011;37998;53.416;6.730;2023-04-30T03:04:12;7.82;;;3.25;;
51981;SDS011;37998;53.416;6.730;2023-04-30T03:06:38;10.10;;;3.00;;
51981;SDS011;37998;53.416;6.730;2023-04-30T03:09:04;8.07;;;3.42;;
51981;SDS011;37998;53.416;6.730;2023-04-30T03:11:31;11.38;;;4.55;;
51981;SDS011;37998;53.416;6.730;2023-04-30T03:13:57;6.95;;;3.40;;
51981;SDS011;37998;53.416;6.730;2023-04-30T03:16:23;11.25;;;4.95;;
51981;SDS011;37998;53.416;6.730;2023-04-30T03:18:48;11.00;;;3.10;;
51981;SDS011;37998;53.416;6.730;2023-04-30T03:21:15;10.50;;;3.28;;
51981;SDS011;37998;53.416;6.730;2023-04-30T03:23:41;7.30;;;3.22;;
51981;SDS011;37998;53.416;6.730;2023-04-30T03:26:07;8.82;;;3.42;;
51981;SDS011;37998;53.416;6.730;2023-04-30T03:28:33;9.38;;;2.88;;
51981;SDS011;37998;53.416;6.730;2023-04-30T03:31:01;8.75;;;3.65;;
51981;SDS011;37998;53.416;6.730;2023-04-30T03:33:30;10.13;;;3.25;;
51981;SDS011;37998;53.416;6.730;2023-04-30T03:35:56;16.02;;;3.45;;
51981;SDS011;37998;53.416;6.730;2023-04-30T03:38:22;9.52;;;3.35;;
51981;SDS011;37998;53.416;6.730;2023-04-30T03:40:48;9.60;;;3.75;;
51981;SDS011;37998;53.416;6.730;2023-04-30T03:43:14;11.20;;;3.13;;
51981;SDS011;37998;53.416;6.730;2023-04-30T03:45:40;6.43;;;3.08;;
51981;SDS011;37998;53.416;6.730;2023-04-30T03:48:06;10.50;;;4.13;;
51981;SDS011;37998;53.416;6.730;2023-04-30T03:50:32;8.30;;;3.22;;
51981;SDS011;37998;53.416;6.730;2023-04-30T03:52:58;9.07;;;3.50;;
51981;SDS011;37998;53.416;6.730;2023-04-30T03:55:24;10.68;;;3.63;;
51981;SDS011;37998;53.416;6.730;2023-04-30T03:57:50;7.60;;;3.17;;
51981;SDS011;37998;53.416;6.730;2023-04-30T04:00:16;11.32;;;3.25;;
51981;SDS011;37998;53.416;6.730;2023-04-30T04:02:47;8.00;;;3.45;;
51981;SDS011;37998;53.416;6.730;2023-04-30T04:05:13;14.48;;;3.40;;
51981;SDS011;37998;53.416;6.730;2023-04-30T04:07:39;9.02;;;2.97;;
51981;SDS011;37998;53.416;6.730;2023-04-30T04:10:05;7.85;;;2.88;;
51981;SDS011;37998;53.416;6.730;2023-04-30T04:12:32;10.30;;;3.75;;
51981;SDS011;37998;53.416;6.730;2023-04-30T04:14:58;8.75;;;3.20;;
51981;SDS011;37998;53.416;6.730;2023-04-30T04:17:24;8.23;;;3.17;;
51981;SDS011;37998;53.416;6.730;2023-04-30T04:19:50;10.68;;;3.15;;
51981;SDS011;37998;53.416;6.730;2023-04-30T04:22:17;7.45;;;3.35;;
51981;SDS011;37998;53.416;6.730;2023-04-30T04:24:43;8.30;;;3.53;;
51981;SDS011;37998;53.416;6.730;2023-04-30T04:27:13;7.80;;;3.38;;
51981;SDS011;37998;53.416;6.730;2023-04-30T04:29:43;11.40;;;3.58;;
51981;SDS011;37998;53.416;6.730;2023-04-30T04:32:09;7.65;;;4.32;;
51981;SDS011;37998;53.416;6.730;2023-04-30T04:34:38;9.80;;;3.60;;
51981;SDS011;37998;53.416;6.730;2023-04-30T04:37:04;8.02;;;3.60;;
51981;SDS011;37998;53.416;6.730;2023-04-30T04:39:30;9.27;;;3.40;;
51981;SDS011;37998;53.416;6.730;2023-04-30T04:41:59;6.28;;;3.30;;
51981;SDS011;37998;53.416;6.730;2023-04-30T04:44:25;8.93;;;4.15;;
51981;SDS011;37998;53.416;6.730;2023-04-30T04:46:51;11.00;;;4.57;;
51981;SDS011;37998;53.416;6.730;2023-04-30T04:49:19;13.50;;;3.80;;
51981;SDS011;37998;53.416;6.730;2023-04-30T04:51:45;10.98;;;4.22;;
51981;SDS011;37998;53.416;6.730;2023-04-30T04:54:11;8.57;;;3.88;;
51981;SDS011;37998;53.416;6.730;2023-04-30T04:56:38;13.63;;;4.20;;
51981;SDS011;37998;53.416;6.730;2023-04-30T04:59:03;10.13;;;3.97;;
51981;SDS011;37998;53.416;6.730;2023-04-30T05:01:29;15.48;;;5.55;;
51981;SDS011;37998;53.416;6.730;2023-04-30T05:03:55;8.70;;;3.75;;
51981;SDS011;37998;53.416;6.730;2023-04-30T05:06:21;8.32;;;4.40;;
51981;SDS011;37998;53.416;6.730;2023-04-30T05:08:47;7.68;;;3.72;;
51981;SDS011;37998;53.416;6.730;2023-04-30T05:11:13;9.75;;;3.95;;
51981;SDS011;37998;53.416;6.730;2023-04-30T05:13:39;10.23;;;3.88;;
51981;SDS011;37998;53.416;6.730;2023-04-30T05:16:05;7.25;;;3.88;;
51981;SDS011;37998;53.416;6.730;2023-04-30T05:18:31;8.00;;;3.75;;
51981;SDS011;37998;53.416;6.730;2023-04-30T05:20:57;8.82;;;3.60;;
51981;SDS011;37998;53.416;6.730;2023-04-30T05:23:23;11.80;;;3.40;;
51981;SDS011;37998;53.416;6.730;2023-04-30T05:25:52;6.65;;;3.70;;
51981;SDS011;37998;53.416;6.730;2023-04-30T05:28:19;15.30;;;4.18;;
51981;SDS011;37998;53.416;6.730;2023-04-30T05:30:45;12.07;;;4.20;;
51981;SDS011;37998;53.416;6.730;2023-04-30T05:33:11;13.18;;;4.65;;
51981;SDS011;37998;53.416;6.730;2023-04-30T05:35:37;9.90;;;3.85;;
51981;SDS011;37998;53.416;6.730;2023-04-30T05:38:03;10.20;;;4.35;;
51981;SDS011;37998;53.416;6.730;2023-04-30T05:40:29;7.50;;;5.40;;
51981;SDS011;37998;53.416;6.730;2023-04-30T05:42:55;18.10;;;6.20;;
51981;SDS011;37998;53.416;6.730;2023-04-30T05:45:21;9.25;;;4.22;;
51981;SDS011;37998;53.416;6.730;2023-04-30T05:47:46;11.93;;;4.03;;
51981;SDS011;37998;53.416;6.730;2023-04-30T05:50:12;8.63;;;4.07;;
51981;SDS011;37998;53.416;6.730;2023-04-30T05:52:38;15.98;;;4.38;;
51981;SDS011;37998;53.416;6.730;2023-04-30T05:55:04;10.43;;;4.88;;
51981;SDS011;37998;53.416;6.730;2023-04-30T05:57:31;10.55;;;4.15;;
51981;SDS011;37998;53.416;6.730;2023-04-30T05:59:56;14.07;;;3.70;;
51981;SDS011;37998;53.416;6.730;2023-04-30T06:02:22;11.43;;;3.88;;
51981;SDS011;37998;53.416;6.730;2023-04-30T06:04:48;6.18;;;3.97;;
51981;SDS011;37998;53.416;6.730;2023-04-30T06:07:14;7.82;;;4.05;;
51981;SDS011;37998;53.416;6.730;2023-04-30T06:09:40;10.30;;;3.45;;
51981;SDS011;37998;53.416;6.730;2023-04-30T06:12:06;12.30;;;3.60;;
51981;SDS011;37998;53.416;6.730;2023-04-30T06:14:32;8.18;;;3.33;;
51981;SDS011;37998;53.416;6.730;2023-04-30T06:16:59;17.13;;;4.63;;
51981;SDS011;37998;53.416;6.730;2023-04-30T06:19:25;8.95;;;3.42;;
51981;SDS011;37998;53.416;6.730;2023-04-30T06:21:51;11.55;;;4.20;;
51981;SDS011;37998;53.416;6.730;2023-04-30T06:24:16;8.73;;;3.63;;
51981;SDS011;37998;53.416;6.730;2023-04-30T06:26:42;10.82;;;3.90;;
51981;SDS011;37998;53.416;6.730;2023-04-30T06:29:08;12.00;;;4.63;;
51981;SDS011;37998;53.416;6.730;2023-04-30T06:31:34;14.15;;;3.75;;
51981;SDS011;37998;53.416;6.730;2023-04-30T06:34:00;7.95;;;3.83;;
51981;SDS011;37998;53.416;6.730;2023-04-30T06:36:26;10.90;;;4.47;;
51981;SDS011;37998;53.416;6.730;2023-04-30T06:38:51;9.77;;;3.85;;
51981;SDS011;37998;53.416;6.730;2023-04-30T06:41:17;13.73;;;4.57;;
51981;SDS011;37998;53.416;6.730;2023-04-30T06:43:43;10.82;;;3.88;;
51981;SDS011;37998;53.416;6.730;2023-04-30T06:46:09;9.77;;;4.22;;
51981;SDS011;37998;53.416;6.730;2023-04-30T06:48:35;10.30;;;3.80;;
51981;SDS011;37998;53.416;6.730;2023-04-30T06:51:01;10.15;;;4.38;;
51981;SDS011;37998;53.416;6.730;2023-04-30T06:53:27;12.45;;;3.78;;
51981;SDS011;37998;53.416;6.730;2023-04-30T06:55:53;14.77;;;3.83;;
51981;SDS011;37998;53.416;6.730;2023-04-30T06:58:20;11.13;;;3.53;;
51981;SDS011;37998;53.416;6.730;2023-04-30T07:00:45;12.48;;;4.18;;
51981;SDS011;37998;53.416;6.730;2023-04-30T07:03:11;9.60;;;3.85;;
51981;SDS011;37998;53.416;6.730;2023-04-30T07:05:38;12.30;;;4.07;;
51981;SDS011;37998;53.416;6.730;2023-04-30T07:08:05;12.00;;;4.18;;
51981;SDS011;37998;53.416;6.730;2023-04-30T07:10:31;9.02;;;3.60;;
51981;SDS011;37998;53.416;6.730;2023-04-30T07:12:57;11.45;;;4.13;;
51981;SDS011;37998;53.416;6.730;2023-04-30T07:15:23;8.75;;;3.45;;
51981;SDS011;37998;53.416;6.730;2023-04-30T07:17:49;11.68;;;4.10;;
51981;SDS011;37998;53.416;6.730;2023-04-30T07:20:15;11.30;;;3.70;;
51981;SDS011;37998;53.416;6.730;2023-04-30T07:22:42;13.18;;;4.68;;
51981;SDS011;37998;53.416;6.730;2023-04-30T07:25:10;12.70;;;4.43;;
51981;SDS011;37998;53.416;6.730;2023-04-30T07:27:37;11.45;;;4.63;;
51981;SDS011;37998;53.416;6.730;2023-04-30T07:30:03;9.40;;;3.85;;
51981;SDS011;37998;53.416;6.730;2023-04-30T07:32:30;12.82;;;4.57;;
51981;SDS011;37998;53.416;6.730;2023-04-30T07:34:56;13.82;;;4.10;;
51981;SDS011;37998;53.416;6.730;2023-04-30T07:37:22;17.95;;;3.78;;
51981;SDS011;37998;53.416;6.730;2023-04-30T07:39:48;9.00;;;4.30;;
51981;SDS011;37998;53.416;6.730;2023-04-30T07:42:14;19.30;;;4.40;;
51981;SDS011;37998;53.416;6.730;2023-04-30T07:44:40;13.65;;;4.22;;
51981;SDS011;37998;53.416;6.730;2023-04-30T07:47:06;17.25;;;4.38;;
51981;SDS011;37998;53.416;6.730;2023-04-30T07:49:32;13.30;;;3.75;;
51981;SDS011;37998;53.416;6.730;2023-04-30T07:51:58;14.93;;;4.57;;
51981;SDS011;37998;53.416;6.730;2023-04-30T07:54:25;8.77;;;3.92;;
51981;SDS011;37998;53.416;6.730;2023-04-30T07:56:52;10.55;;;4.40;;
51981;SDS011;37998;53.416;6.730;2023-04-30T07:59:18;12.20;;;4.03;;
51981;SDS011;37998;53.416;6.730;2023-04-30T08:01:45;14.60;;;4.60;;
51981;SDS011;37998;53.416;6.730;2023-04-30T08:04:11;10.52;;;4.35;;
51981;SDS011;37998;53.416;6.730;2023-04-30T08:06:37;15.82;;;5.10;;
51981;SDS011;37998;53.416;6.730;2023-04-30T08:09:06;11.02;;;4.80;;
51981;SDS011;37998;53.416;6.730;2023-04-30T08:11:33;12.43;;;4.13;;
51981;SDS011;37998;53.416;6.730;2023-04-30T08:13:59;9.95;;;3.78;;
51981;SDS011;37998;53.416;6.730;2023-04-30T08:16:25;12.00;;;3.72;;
51981;SDS011;37998;53.416;6.730;2023-04-30T08:18:50;11.45;;;3.63;;
51981;SDS011;37998;53.416;6.730;2023-04-30T08:21:16;11.07;;;3.90;;
51981;SDS011;37998;53.416;6.730;2023-04-30T08:23:42;13.65;;;3.40;;
51981;SDS011;37998;53.416;6.730;2023-04-30T08:26:08;10.77;;;3.25;;
51981;SDS011;37998;53.416;6.730;2023-04-30T08:28:34;11.43;;;3.28;;
51981;SDS011;37998;53.416;6.730;2023-04-30T08:31:00;8.32;;;3.33;;
51981;SDS011;37998;53.416;6.730;2023-04-30T08:33:26;12.52;;;3.22;;
51981;SDS011;37998;53.416;6.730;2023-04-30T08:35:52;10.75;;;2.97;;
51981;SDS011;37998;53.416;6.730;2023-04-30T08:38:18;10.50;;;3.78;;
51981;SDS011;37998;53.416;6.730;2023-04-30T08:40:47;6.82;;;3.20;;
51981;SDS011;37998;53.416;6.730;2023-04-30T08:43:20;12.57;;;2.90;;
51981;SDS011;37998;53.416;6.730;2023-04-30T08:45:47;8.55;;;2.90;;
51981;SDS011;37998;53.416;6.730;2023-04-30T08:48:15;6.80;;;2.90;;
51981;SDS011;37998;53.416;6.730;2023-04-30T08:50:43;16.45;;;4.75;;
51981;SDS011;37998;53.416;6.730;2023-04-30T08:53:10;8.18;;;2.90;;
51981;SDS011;37998;53.416;6.730;2023-04-30T08:55:39;10.13;;;3.20;;
51981;SDS011;37998;53.416;6.730;2023-04-30T08:58:06;10.15;;;2.88;;
51981;SDS011;37998;53.416;6.730;2023-04-30T09:00:32;8.48;;;3.13;;
51981;SDS011;37998;53.416;6.730;2023-04-30T09:03:01;8.43;;;3.22;;
51981;SDS011;37998;53.416;6.730;2023-04-30T09:05:27;9.00;;;3.10;;
51981;SDS011;37998;53.416;6.730;2023-04-30T09:07:53;11.43;;;3.40;;
51981;SDS011;37998;53.416;6.730;2023-04-30T09:10:20;10.70;;;3.33;;
51981;SDS011;37998;53.416;6.730;2023-04-30T09:15:49;10.80;;;3.30;;
51981;SDS011;37998;53.416;6.730;2023-04-30T09:18:17;9.45;;;3.40;;
51981;SDS011;37998;53.416;6.730;2023-04-30T09:23:19;14.25;;;3.70;;
51981;SDS011;37998;53.416;6.730;2023-04-30T09:25:44;14.18;;;3.88;;
51981;SDS011;37998;53.416;6.730;2023-04-30T09:28:11;10.95;;;3.80;;
51981;SDS011;37998;53.416;6.730;2023-04-30T09:30:39;11.23;;;3.83;;
51981;SDS011;37998;53.416;6.730;2023-04-30T09:33:05;8.18;;;3.20;;
51981;SDS011;37998;53.416;6.730;2023-04-30T09:35:32;12.52;;;3.58;;
51981;SDS011;37998;53.416;6.730;2023-04-30T09:38:31;9.40;;;3.10;;
51981;SDS011;37998;53.416;6.730;2023-04-30T09:40:58;10.15;;;3.20;;
51981;SDS011;37998;53.416;6.730;2023-04-30T09:43:25;9.15;;;3.08;;
51981;SDS011;37998;53.416;6.730;2023-04-30T09:45:56;14.63;;;3.38;;
51981;SDS011;37998;53.416;6.730;2023-04-30T09:48:24;8.25;;;3.10;;
51981;SDS011;37998;53.416;6.730;2023-04-30T09:50:52;10.10;;;3.20;;
51981;SDS011;37998;53.416;6.730;2023-04-30T09:53:18;7.05;;;2.97;;
51981;SDS011;37998;53.416;6.730;2023-04-30T09:55:45;8.82;;;3.00;;
51981;SDS011;37998;53.416;6.730;2023-04-30T09:58:13;6.20;;;3.05;;
51981;SDS011;37998;53.416;6.730;2023-04-30T10:00:41;8.75;;;3.17;;
51981;SDS011;37998;53.416;6.730;2023-04-30T10:03:10;9.00;;;2.97;;
51981;SDS011;37998;53.416;6.730;2023-04-30T10:05:42;9.70;;;3.22;;
51981;SDS011;37998;53.416;6.730;2023-04-30T10:08:24;9.40;;;3.38;;
51981;SDS011;37998;53.416;6.730;2023-04-30T10:10:57;8.73;;;3.05;;
51981;SDS011;37998;53.416;6.730;2023-04-30T10:13:30;9.35;;;4.00;;
51981;SDS011;37998;53.416;6.730;2023-04-30T10:15:58;6.65;;;3.03;;
51981;SDS011;37998;53.416;6.730;2023-04-30T10:18:32;12.68;;;3.22;;
51981;SDS011;37998;53.416;6.730;2023-04-30T10:21:04;10.10;;;3.00;;
51981;SDS011;37998;53.416;6.730;2023-04-30T10:23:37;10.70;;;2.97;;
51981;SDS011;37998;53.416;6.730;2023-04-30T10:26:09;8.55;;;2.60;;
51981;SDS011;37998;53.416;6.730;2023-04-30T10:28:38;5.25;;;2.45;;
51981;SDS011;37998;53.416;6.730;2023-04-30T10:31:06;10.88;;;3.40;;
51981;SDS011;37998;53.416;6.730;2023-04-30T10:33:52;5.55;;;2.47;;
51981;SDS011;37998;53.416;6.730;2023-04-30T10:36:28;8.25;;;2.90;;
51981;SDS011;37998;53.416;6.730;2023-04-30T10:39:03;4.38;;;2.33;;
51981;SDS011;37998;53.416;6.730;2023-04-30T10:41:30;4.85;;;2.28;;
51981;SDS011;37998;53.416;6.730;2023-04-30T10:43:56;9.32;;;2.90;;
51981;SDS011;37998;53.416;6.730;2023-04-30T10:46:25;8.43;;;2.67;;
51981;SDS011;37998;53.416;6.730;2023-04-30T10:48:55;11.70;;;2.63;;
51981;SDS011;37998;53.416;6.730;2023-04-30T10:51:21;6.32;;;2.80;;
51981;SDS011;37998;53.416;6.730;2023-04-30T10:53:49;8.95;;;2.83;;
51981;SDS011;37998;53.416;6.730;2023-04-30T10:56:32;7.25;;;3.25;;
51981;SDS011;37998;53.416;6.730;2023-04-30T10:58:59;6.10;;;2.58;;
51981;SDS011;37998;53.416;6.730;2023-04-30T11:01:26;7.72;;;2.78;;
51981;SDS011;37998;53.416;6.730;2023-04-30T11:04:03;9.48;;;3.45;;
51981;SDS011;37998;53.416;6.730;2023-04-30T11:06:47;9.90;;;2.85;;
51981;SDS011;37998;53.416;6.730;2023-04-30T11:09:17;9.40;;;3.25;;
51981;SDS011;37998;53.416;6.730;2023-04-30T11:11:43;7.65;;;3.17;;
51981;SDS011;37998;53.416;6.730;2023-04-30T11:14:15;7.22;;;3.10;;
51981;SDS011;37998;53.416;6.730;2023-04-30T11:16:47;10.73;;;3.50;;
51981;SDS011;37998;53.416;6.730;2023-04-30T11:19:14;5.75;;;3.05;;
51981;SDS011;37998;53.416;6.730;2023-04-30T11:21:41;5.68;;;2.70;;
51981;SDS011;37998;53.416;6.730;2023-04-30T11:27:32;10.73;;;3.03;;
51981;SDS011;37998;53.416;6.730;2023-04-30T11:29:59;4.78;;;2.63;;
51981;SDS011;37998;53.416;6.730;2023-04-30T11:32:30;8.20;;;3.28;;
51981;SDS011;37998;53.416;6.730;2023-04-30T11:35:01;8.43;;;2.60;;
51981;SDS011;37998;53.416;6.730;2023-04-30T11:37:29;5.97;;;2.38;;
51981;SDS011;37998;53.416;6.730;2023-04-30T11:39:58;7.00;;;2.70;;
51981;SDS011;37998;53.416;6.730;2023-04-30T11:42:36;5.70;;;2.70;;
51981;SDS011;37998;53.416;6.730;2023-04-30T11:45:04;7.38;;;3.22;;
51981;SDS011;37998;53.416;6.730;2023-04-30T11:50:17;6.47;;;2.58;;
51981;SDS011;37998;53.416;6.730;2023-04-30T11:52:48;8.20;;;2.88;;
51981;SDS011;37998;53.416;6.730;2023-04-30T11:55:17;5.85;;;2.78;;
51981;SDS011;37998;53.416;6.730;2023-04-30T11:57:45;6.90;;;3.00;;
51981;SDS011;37998;53.416;6.730;2023-04-30T12:00:20;6.30;;;2.90;;
51981;SDS011;37998;53.416;6.730;2023-04-30T12:02:56;8.52;;;3.22;;
51981;SDS011;37998;53.416;6.730;2023-04-30T12:05:24;7.03;;;2.70;;
51981;SDS011;37998;53.416;6.730;2023-04-30T12:10:23;7.18;;;3.05;;
51981;SDS011;37998;53.416;6.730;2023-04-30T12:12:52;6.35;;;2.80;;
51981;SDS011;37998;53.416;6.730;2023-04-30T12:15:20;9.48;;;3.00;;
51981;SDS011;37998;53.416;6.730;2023-04-30T12:17:54;7.25;;;2.90;;
51981;SDS011;37998;53.416;6.730;2023-04-30T12:20:22;7.15;;;2.97;;
51981;SDS011;37998;53.416;6.730;2023-04-30T12:22:49;6.97;;;3.10;;
51981;SDS011;37998;53.416;6.730;2023-04-30T12:25:16;7.57;;;3.33;;
51981;SDS011;37998;53.416;6.730;2023-04-30T12:27:44;4.13;;;2.60;;
51981;SDS011;37998;53.416;6.730;2023-04-30T12:30:12;3.58;;;2.60;;
51981;SDS011;37998;53.416;6.730;2023-04-30T12:35:08;8.15;;;2.58;;
51981;SDS011;37998;53.416;6.730;2023-04-30T12:37:42;7.22;;;2.60;;
51981;SDS011;37998;53.416;6.730;2023-04-30T12:40:16;6.07;;;2.97;;
51981;SDS011;37998;53.416;6.730;2023-04-30T12:42:44;6.10;;;2.85;;
51981;SDS011;37998;53.416;6.730;2023-04-30T12:45:11;7.43;;;2.90;;
51981;SDS011;37998;53.416;6.730;2023-04-30T12:47:38;3.70;;;2.25;;
51981;SDS011;37998;53.416;6.730;2023-04-30T12:50:08;4.47;;;2.58;;
51981;SDS011;37998;53.416;6.730;2023-04-30T12:52:38;4.82;;;2.33;;
51981;SDS011;37998;53.416;6.730;2023-04-30T12:55:17;3.72;;;2.33;;
51981;SDS011;37998;53.416;6.730;2023-04-30T12:58:04;6.53;;;2.47;;
51981;SDS011;37998;53.416;6.730;2023-04-30T13:03:13;5.57;;;2.40;;
51981;SDS011;37998;53.416;6.730;2023-04-30T13:05:40;3.75;;;2.33;;
51981;SDS011;37998;53.416;6.730;2023-04-30T13:08:12;6.60;;;2.40;;
51981;SDS011;37998;53.416;6.730;2023-04-30T13:10:38;3.35;;;2.17;;
51981;SDS011;37998;53.416;6.730;2023-04-30T13:13:04;5.45;;;2.60;;
51981;SDS011;37998;53.416;6.730;2023-04-30T13:15:30;2.90;;;2.00;;
51981;SDS011;37998;53.416;6.730;2023-04-30T13:17:56;4.10;;;2.00;;
51981;SDS011;37998;53.416;6.730;2023-04-30T13:20:22;5.75;;;2.20;;
51981;SDS011;37998;53.416;6.730;2023-04-30T13:22:49;4.43;;;2.30;;
51981;SDS011;37998;53.416;6.730;2023-04-30T13:25:16;2.88;;;2.25;;
51981;SDS011;37998;53.416;6.730;2023-04-30T13:27:42;4.25;;;2.28;;
51981;SDS011;37998;53.416;6.730;2023-04-30T13:30:08;4.93;;;2.42;;
51981;SDS011;37998;53.416;6.730;2023-04-30T13:32:35;3.50;;;1.98;;
51981;SDS011;37998;53.416;6.730;2023-04-30T13:35:04;6.15;;;2.33;;
51981;SDS011;37998;53.416;6.730;2023-04-30T13:37:31;4.63;;;1.90;;
51981;SDS011;37998;53.416;6.730;2023-04-30T13:39:57;2.80;;;1.85;;
51981;SDS011;37998;53.416;6.730;2023-04-30T13:42:26;3.53;;;1.65;;
51981;SDS011;37998;53.416;6.730;2023-04-30T13:44:52;2.72;;;1.50;;
51981;SDS011;37998;53.416;6.730;2023-04-30T13:47:18;3.17;;;1.30;;
51981;SDS011;37998;53.416;6.730;2023-04-30T13:49:45;3.13;;;1.80;;
51981;SDS011;37998;53.416;6.730;2023-04-30T13:52:11;3.42;;;2.03;;
51981;SDS011;37998;53.416;6.730;2023-04-30T13:54:37;4.40;;;1.88;;
51981;SDS011;37998;53.416;6.730;2023-04-30T13:57:05;2.15;;;1.50;;
51981;SDS011;37998;53.416;6.730;2023-04-30T13:59:32;2.20;;;1.52;;
51981;SDS011;37998;53.416;6.730;2023-04-30T14:01:58;1.80;;;1.35;;
51981;SDS011;37998;53.416;6.730;2023-04-30T14:04:24;2.25;;;1.38;;
51981;SDS011;37998;53.416;6.730;2023-04-30T14:06:51;3.25;;;1.60;;
51981;SDS011;37998;53.416;6.730;2023-04-30T14:09:21;4.70;;;1.83;;
51981;SDS011;37998;53.416;6.730;2023-04-30T14:11:47;2.53;;;1.60;;
51981;SDS011;37998;53.416;6.730;2023-04-30T14:14:13;3.55;;;1.70;;
51981;SDS011;37998;53.416;6.730;2023-04-30T14:16:39;2.05;;;1.65;;
51981;SDS011;37998;53.416;6.730;2023-04-30T14:19:05;4.35;;;2.05;;
51981;SDS011;37998;53.416;6.730;2023-04-30T14:21:31;5.88;;;1.90;;
51981;SDS011;37998;53.416;6.730;2023-04-30T14:23:57;3.80;;;1.60;;
51981;SDS011;37998;53.416;6.730;2023-04-30T14:26:23;7.18;;;2.10;;
51981;SDS011;37998;53.416;6.730;2023-04-30T14:28:49;4.53;;;2.03;;
51981;SDS011;37998;53.416;6.730;2023-04-30T14:31:15;4.78;;;2.17;;
51981;SDS011;37998;53.416;6.730;2023-04-30T14:33:41;7.07;;;2.35;;
51981;SDS011;37998;53.416;6.730;2023-04-30T14:36:08;4.90;;;1.92;;
51981;SDS011;37998;53.416;6.730;2023-04-30T14:38:34;5.40;;;2.40;;
51981;SDS011;37998;53.416;6.730;2023-04-30T14:41:00;5.75;;;2.25;;
51981;SDS011;37998;53.416;6.730;2023-04-30T14:43:26;3.88;;;2.45;;
51981;SDS011;37998;53.416;6.730;2023-04-30T14:45:51;3.20;;;1.70;;
51981;SDS011;37998;53.416;6.730;2023-04-30T14:48:17;4.18;;;2.05;;
51981;SDS011;37998;53.416;6.730;2023-04-30T14:50:43;4.97;;;2.20;;
51981;SDS011;37998;53.416;6.730;2023-04-30T14:53:10;5.97;;;2.47;;
51981;SDS011;37998;53.416;6.730;2023-04-30T14:55:37;5.60;;;2.58;;
51981;SDS011;37998;53.416;6.730;2023-04-30T14:58:04;5.40;;;2.28;;
51981;SDS011;37998;53.416;6.730;2023-04-30T15:00:30;4.10;;;2.20;;
51981;SDS011;37998;53.416;6.730;2023-04-30T15:02:57;5.40;;;2.75;;
51981;SDS011;37998;53.416;6.730;2023-04-30T15:05:24;8.35;;;3.40;;
51981;SDS011;37998;53.416;6.730;2023-04-30T15:07:50;9.55;;;3.40;;
51981;SDS011;37998;53.416;6.730;2023-04-30T15:10:16;13.40;;;3.83;;
51981;SDS011;37998;53.416;6.730;2023-04-30T15:12:42;6.88;;;3.13;;
51981;SDS011;37998;53.416;6.730;2023-04-30T15:15:08;8.98;;;3.30;;
51981;SDS011;37998;53.416;6.730;2023-04-30T15:17:34;6.32;;;2.92;;
51981;SDS011;37998;53.416;6.730;2023-04-30T15:20:04;7.47;;;3.13;;